createdAt,value
2018-03-18T00:05:01.534Z,0.70
2018-03-18T00:10:34.948Z,0.70
2018-03-18T00:13:03.194Z,0.80
2018-03-18T00:15:30.641Z,0.70
2018-03-18T00:17:59.807Z,0.80
2018-03-18T00:20:28.921Z,0.80
2018-03-18T00:22:59.344Z,0.70
2018-03-18T00:25:29.653Z,0.70
2018-03-18T00:28:10.559Z,0.60
2018-03-18T00:30:38.034Z,0.50
2018-03-18T00:33:05.533Z,0.60
2018-03-18T00:35:33.027Z,0.50
2018-03-18T00:38:00.484Z,0.60
2018-03-18T00:40:27.995Z,0.40
2018-03-18T00:42:58.933Z,0.50
2018-03-18T00:45:29.993Z,0.50
2018-03-18T00:47:57.552Z,0.60
2018-03-18T00:50:29.043Z,0.50
2018-03-18T00:52:57.986Z,0.40
2018-03-18T00:55:27.014Z,0.10
2018-03-18T00:57:58.042Z,0.10
2018-03-18T01:00:30.906Z,0.00
2018-03-18T01:02:58.366Z,0.00
2018-03-18T01:05:29.707Z,0.10
2018-03-18T01:08:05.907Z,0.20
2018-03-18T01:10:34.714Z,0.20
2018-03-18T01:13:02.938Z,0.10
2018-03-18T01:15:31.199Z,0.10
2018-03-18T01:18:00.886Z,0.10
2018-03-18T01:20:28.374Z,0.00
2018-03-18T01:22:59.042Z,0.00
2018-03-18T01:25:26.526Z,-0.10
2018-03-18T01:27:58.417Z,-0.10
2018-03-18T01:30:29.111Z,-0.10
2018-03-18T01:33:00.861Z,-0.10
2018-03-18T01:35:31.335Z,-0.10
2018-03-18T01:38:00.026Z,0.00
2018-03-18T01:40:30.913Z,0.00
2018-03-18T01:43:00.985Z,-0.10
2018-03-18T01:45:31.074Z,-0.10
2018-03-18T01:48:01.898Z,-0.10
2018-03-18T01:50:31.253Z,-0.20
2018-03-18T01:56:30.070Z,-0.10
2018-03-18T01:59:00.473Z,-0.10
2018-03-18T02:01:31.125Z,-0.20
2018-03-18T02:04:01.196Z,-0.20
2018-03-18T02:06:32.337Z,-0.20
2018-03-18T02:12:01.132Z,-0.30
2018-03-18T02:14:32.478Z,-0.30
2018-03-18T02:20:02.187Z,-0.40
2018-03-18T02:22:36.200Z,-0.30
2018-03-18T02:25:04.861Z,-0.40
2018-03-18T02:27:32.376Z,-0.40
2018-03-18T02:30:02.864Z,-0.50
2018-03-18T02:32:32.723Z,-0.50
2018-03-18T02:35:02.580Z,-0.50
2018-03-18T02:37:32.722Z,-0.40
2018-03-18T02:43:32.633Z,-0.50
2018-03-18T02:46:02.938Z,-0.50
2018-03-18T02:48:32.096Z,-0.60
2018-03-18T02:51:01.803Z,-0.50
2018-03-18T02:53:30.480Z,-0.60
2018-03-18T02:56:01.786Z,-0.50
2018-03-18T02:58:31.846Z,-0.50
2018-03-18T03:01:01.487Z,-0.60
2018-03-18T03:12:36.569Z,-0.80
2018-03-18T03:15:04.026Z,-0.80
2018-03-18T03:17:31.508Z,-0.90
2018-03-18T03:20:02.203Z,-0.80
2018-03-18T03:22:31.217Z,-0.80
2018-03-18T03:25:01.118Z,-0.80
2018-03-18T03:27:32.246Z,-0.80
2018-03-18T03:30:02.255Z,-0.90
2018-03-18T03:32:32.366Z,-1.00
2018-03-18T03:35:01.488Z,-1.00
2018-03-18T03:37:31.457Z,-0.90
2018-03-18T03:40:01.481Z,-0.90
2018-03-18T03:42:31.381Z,-1.10
2018-03-18T03:45:01.517Z,-1.10
2018-03-18T03:47:31.450Z,-1.10
2018-03-18T03:50:02.218Z,-1.10
2018-03-18T03:52:32.412Z,-1.10
2018-03-18T03:58:04.422Z,-1.20
2018-03-18T04:00:31.872Z,-1.20
2018-03-18T04:03:02.411Z,-1.30
2018-03-18T04:05:30.721Z,-1.30
2018-03-18T04:08:33.566Z,-1.40
2018-03-18T04:14:01.694Z,-1.40
2018-03-18T04:16:32.903Z,-1.50
2018-03-18T04:19:02.547Z,-1.50
2018-03-18T04:21:32.787Z,-1.50
2018-03-18T04:24:02.541Z,-1.50
2018-03-18T04:26:37.839Z,-1.60
2018-03-18T04:29:05.293Z,-1.50
2018-03-18T04:31:55.862Z,-1.60
2018-03-18T04:34:31.605Z,-1.60
2018-03-18T04:37:01.809Z,-1.60
2018-03-18T04:43:01.329Z,-1.60
2018-03-18T04:48:33.952Z,-1.50
2018-03-18T04:51:02.018Z,-1.70
2018-03-18T04:53:31.969Z,-1.70
2018-03-18T04:56:02.883Z,-1.80
2018-03-18T04:58:32.205Z,-1.60
2018-03-18T05:01:02.235Z,-1.70
2018-03-18T05:03:33.074Z,-1.70
2018-03-18T05:06:02.905Z,-1.80
2018-03-18T05:08:32.207Z,-1.90
2018-03-18T05:14:32.260Z,-1.80
2018-03-18T05:17:02.369Z,-1.90
2018-03-18T05:19:31.408Z,-1.90
2018-03-18T05:22:01.206Z,-1.90
2018-03-18T05:24:34.442Z,-2.00
2018-03-18T05:27:02.043Z,-2.00
2018-03-18T05:29:31.386Z,-1.90
2018-03-18T05:32:02.684Z,-1.90
2018-03-18T05:34:32.754Z,-1.90
2018-03-18T05:37:00.278Z,-1.90
2018-03-18T05:39:32.251Z,-2.00
2018-03-18T05:42:02.505Z,-2.10
2018-03-18T05:44:36.490Z,-1.90
2018-03-18T05:47:06.137Z,-2.00
2018-03-18T05:49:34.377Z,-2.10
2018-03-18T05:52:01.981Z,-2.20
2018-03-18T05:54:31.502Z,-2.00
2018-03-18T05:57:01.835Z,-2.00
2018-03-18T06:02:30.953Z,-2.00
2018-03-18T06:04:59.888Z,-2.00
2018-03-18T06:07:29.729Z,-2.00
2018-03-18T06:10:05.765Z,-2.10
2018-03-18T06:12:34.069Z,-2.00
2018-03-18T06:15:02.972Z,-2.00
2018-03-18T06:17:31.735Z,-1.90
2018-03-18T06:20:02.652Z,-1.90
2018-03-18T06:22:37.922Z,-1.80
2018-03-18T06:25:05.450Z,-1.80
2018-03-18T06:27:33.051Z,-1.70
2018-03-18T06:30:03.302Z,-1.70
2018-03-18T06:32:31.094Z,-1.70
2018-03-18T06:35:01.945Z,-1.60
2018-03-18T06:37:33.130Z,-1.60
2018-03-18T06:40:02.877Z,-1.70
2018-03-18T06:42:31.998Z,-1.70
2018-03-18T06:45:01.635Z,-1.50
2018-03-18T06:47:31.786Z,-1.60
2018-03-18T06:50:03.045Z,-1.70
2018-03-18T06:52:32.016Z,-1.70
2018-03-18T06:58:05.930Z,-1.60
2018-03-18T07:00:34.296Z,-1.50
2018-03-18T07:03:03.195Z,-1.60
2018-03-18T07:05:32.305Z,-1.50
2018-03-18T07:11:32.241Z,-1.40
2018-03-18T07:14:01.325Z,-1.40
2018-03-18T07:16:31.234Z,-1.40
2018-03-18T07:19:01.990Z,-1.50
2018-03-18T07:21:30.613Z,-1.50
2018-03-18T07:24:00.314Z,-1.50
2018-03-18T07:26:32.135Z,-1.50
2018-03-18T07:32:37.027Z,-1.50
2018-03-18T07:35:05.906Z,-1.30
2018-03-18T07:37:33.367Z,-1.30
2018-03-18T07:40:01.333Z,-1.30
2018-03-18T07:42:31.219Z,-1.30
2018-03-18T07:44:59.547Z,-1.40
2018-03-18T07:47:31.332Z,-1.40
2018-03-18T07:50:00.635Z,-1.40
2018-03-18T07:52:31.422Z,-1.40
2018-03-18T07:54:59.782Z,-1.40
2018-03-18T07:57:29.184Z,-1.40
2018-03-18T08:00:01.217Z,-1.40
2018-03-18T08:02:28.683Z,-1.40
2018-03-18T08:04:59.558Z,-1.50
2018-03-18T08:07:30.525Z,-1.40
2018-03-18T08:10:01.578Z,-1.40
2018-03-18T08:12:29.905Z,-1.40
2018-03-18T08:14:59.397Z,-1.40
2018-03-18T08:17:28.358Z,-1.30
2018-03-18T08:19:59.475Z,-1.20
2018-03-18T08:22:30.533Z,-1.20
2018-03-18T08:24:59.582Z,-1.20
2018-03-18T08:27:27.094Z,-1.10
2018-03-18T08:30:23.604Z,-1.10
2018-03-18T08:33:11.164Z,-1.10
2018-03-18T08:35:38.661Z,-1.10
2018-03-18T08:38:06.149Z,-1.10
2018-03-18T08:40:33.625Z,-1.10
2018-03-18T08:43:01.697Z,-1.20
2018-03-18T08:45:30.751Z,-1.10
2018-03-18T08:48:03.118Z,-1.00
2018-03-18T08:50:31.455Z,-0.80
2018-03-18T08:52:59.759Z,-0.80
2018-03-18T08:55:29.847Z,-0.80
2018-03-18T08:57:59.021Z,-0.90
2018-03-18T09:00:27.709Z,-0.90
2018-03-18T09:02:57.867Z,-0.80
2018-03-18T09:05:29.413Z,-0.70
2018-03-18T09:07:58.074Z,-0.70
2018-03-18T09:10:29.375Z,-0.80
2018-03-18T09:13:28.162Z,-0.70
2018-03-18T09:16:01.430Z,-0.90
2018-03-18T09:18:31.718Z,-0.80
2018-03-18T09:21:00.161Z,-0.80
2018-03-18T09:23:28.432Z,-0.90
2018-03-18T09:25:56.534Z,-0.90
2018-03-18T09:28:25.948Z,-0.90
2018-03-18T09:31:00.023Z,-0.80
2018-03-18T09:33:30.022Z,-0.70
2018-03-18T09:35:59.801Z,-0.70
2018-03-18T09:38:29.936Z,-0.50
2018-03-18T09:41:00.013Z,-0.40
2018-03-18T09:43:29.716Z,-0.40
2018-03-18T09:45:59.896Z,-0.50
2018-03-18T09:48:30.661Z,-0.50
2018-03-18T09:50:59.234Z,-0.40
2018-03-18T09:53:29.215Z,-0.50
2018-03-18T09:55:57.514Z,-0.30
2018-03-18T09:58:25.063Z,-0.30
2018-03-18T10:01:00.147Z,-0.20
2018-03-18T10:06:33.805Z,-0.30
2018-03-18T10:09:01.560Z,-0.30
2018-03-18T10:11:31.533Z,-0.30
2018-03-18T10:14:11.071Z,-0.20
2018-03-18T10:16:38.577Z,-0.20
2018-03-18T10:19:06.041Z,-0.20
2018-03-18T10:21:33.523Z,-0.20
2018-03-18T10:24:01.747Z,0.00
2018-03-18T10:26:32.547Z,0.20
2018-03-18T10:29:00.001Z,0.10
2018-03-18T10:31:27.611Z,0.20
2018-03-18T10:33:55.582Z,0.30
2018-03-18T10:36:23.741Z,0.30
2018-03-18T10:38:52.241Z,0.40
2018-03-18T10:41:22.070Z,0.40
2018-03-18T10:43:51.933Z,0.50
2018-03-18T10:46:22.156Z,0.50
2018-03-18T10:48:50.233Z,0.60
2018-03-18T10:51:35.597Z,0.60
2018-03-18T10:54:03.320Z,0.70
2018-03-18T10:56:41.185Z,0.70
2018-03-18T10:59:08.762Z,0.60
2018-03-18T11:04:32.051Z,0.80
2018-03-18T11:07:01.983Z,0.70
2018-03-18T11:09:34.803Z,0.70
2018-03-18T11:14:59.019Z,0.60
2018-03-18T11:17:31.825Z,0.60
2018-03-18T11:20:00.054Z,0.70
2018-03-18T11:25:31.311Z,0.70
2018-03-18T11:28:01.162Z,0.70
2018-03-18T11:30:28.660Z,0.80
2018-03-18T11:33:00.148Z,0.80
2018-03-18T11:35:28.163Z,0.90
2018-03-18T11:37:58.154Z,0.90
2018-03-18T11:40:31.023Z,0.90
2018-03-18T11:42:58.492Z,1.00
2018-03-18T11:45:29.033Z,1.00
2018-03-18T11:47:58.302Z,1.20
2018-03-18T11:50:29.319Z,1.20
2018-03-18T11:52:58.690Z,1.20
2018-03-18T11:55:31.183Z,1.20
2018-03-18T11:57:58.724Z,1.20
2018-03-18T12:00:26.913Z,1.30
2018-03-18T12:02:58.189Z,1.20
2018-03-18T12:05:28.188Z,1.10
2018-03-18T12:07:58.473Z,1.10
2018-03-18T12:10:31.130Z,1.10
2018-03-18T12:13:00.249Z,1.10
2018-03-18T12:15:33.317Z,1.10
2018-03-18T12:18:00.809Z,1.20
2018-03-18T12:20:28.495Z,1.20
2018-03-18T12:22:57.806Z,1.10
2018-03-18T12:25:27.389Z,1.10
2018-03-18T12:27:57.815Z,1.20
2018-03-18T12:30:37.903Z,1.20
2018-03-18T12:33:05.948Z,1.20
2018-03-18T12:35:34.216Z,1.30
2018-03-18T12:38:01.685Z,1.20
2018-03-18T12:40:31.291Z,1.30
2018-03-18T12:43:10.602Z,1.10
2018-03-18T12:45:38.842Z,1.10
2018-03-18T12:48:06.308Z,1.10
2018-03-18T12:50:33.794Z,1.10
2018-03-18T12:53:01.237Z,1.10
2018-03-18T12:55:29.583Z,1.00
2018-03-18T13:01:01.134Z,1.00
2018-03-18T13:03:30.928Z,1.20
2018-03-18T13:06:01.029Z,1.10
2018-03-18T13:08:28.546Z,1.10
2018-03-18T13:10:58.449Z,1.30
2018-03-18T13:13:28.623Z,1.30
2018-03-18T13:15:57.103Z,1.20
2018-03-18T13:18:26.922Z,1.20
2018-03-18T13:20:54.451Z,1.30
2018-03-18T13:23:25.279Z,1.40
2018-03-18T13:25:55.590Z,1.30
2018-03-18T13:28:30.784Z,1.30
2018-03-18T13:30:59.582Z,1.30
2018-03-18T13:33:29.703Z,1.40
2018-03-18T13:36:00.798Z,1.40
2018-03-18T13:41:49.185Z,1.40
2018-03-18T13:44:35.285Z,1.40
2018-03-18T13:47:02.789Z,1.50
2018-03-18T13:49:31.082Z,1.50
2018-03-18T13:52:02.096Z,1.50
2018-03-18T13:54:30.383Z,1.80
2018-03-18T13:56:58.988Z,1.70
2018-03-18T13:59:29.823Z,1.70
2018-03-18T14:01:59.439Z,1.60
2018-03-18T14:07:27.603Z,1.50
2018-03-18T14:09:58.518Z,1.60
2018-03-18T14:12:28.745Z,1.60
2018-03-18T14:14:59.785Z,1.70
2018-03-18T14:17:29.960Z,1.70
2018-03-18T14:20:00.821Z,1.70
2018-03-18T14:22:30.106Z,1.60
2018-03-18T14:24:59.959Z,1.60
2018-03-18T14:27:38.957Z,1.80
2018-03-18T14:30:06.446Z,1.70
2018-03-18T14:32:33.910Z,1.70
2018-03-18T14:35:03.401Z,1.70
2018-03-18T14:38:05.608Z,1.60
2018-03-18T14:41:03.180Z,1.60
2018-03-18T14:44:03.281Z,1.60
2018-03-18T14:46:31.378Z,1.50
2018-03-18T14:48:59.929Z,1.50
2018-03-18T14:51:31.903Z,1.50
2018-03-18T14:54:00.065Z,1.50
2018-03-18T14:56:29.861Z,1.50
2018-03-18T14:58:59.980Z,1.50
2018-03-18T15:01:29.898Z,1.50
2018-03-18T15:04:00.126Z,1.50
2018-03-18T15:06:30.161Z,1.60
2018-03-18T15:09:00.169Z,1.60
2018-03-18T15:11:29.726Z,1.40
2018-03-18T15:13:58.739Z,1.60
2018-03-18T15:16:38.707Z,1.70
2018-03-18T15:19:08.556Z,1.70
2018-03-18T15:21:36.784Z,1.60
2018-03-18T15:24:24.991Z,1.60
2018-03-18T15:32:32.688Z,1.40
2018-03-18T15:35:05.896Z,1.40
2018-03-18T15:37:33.369Z,1.40
2018-03-18T15:40:01.629Z,1.50
2018-03-18T15:42:30.906Z,1.50
2018-03-18T15:45:01.373Z,1.30
2018-03-18T15:47:56.536Z,1.30
2018-03-18T15:50:28.123Z,1.20
2018-03-18T15:52:58.746Z,1.20
2018-03-18T15:55:39.308Z,1.20
2018-03-18T15:58:31.068Z,1.20
2018-03-18T16:01:00.810Z,1.20
2018-03-18T16:04:03.133Z,1.20
2018-03-18T16:06:59.069Z,1.20
2018-03-18T16:09:31.033Z,1.20
2018-03-18T16:12:00.760Z,1.10
2018-03-18T16:14:29.826Z,1.10
2018-03-18T16:20:33.008Z,1.10
2018-03-18T16:23:00.453Z,1.10
2018-03-18T16:25:29.142Z,1.10
2018-03-18T16:28:27.360Z,1.10
2018-03-18T16:31:33.066Z,1.10
2018-03-18T16:34:00.554Z,1.20
2018-03-18T16:36:29.980Z,1.10
2018-03-18T16:39:00.866Z,1.10
2018-03-18T16:41:30.169Z,1.00
2018-03-18T16:44:13.193Z,1.10
2018-03-18T16:46:50.410Z,1.00
2018-03-18T16:49:29.723Z,1.10
2018-03-18T16:52:00.230Z,1.20
2018-03-18T16:54:30.040Z,1.10
2018-03-18T16:57:00.070Z,1.00
2018-03-18T17:02:41.806Z,1.20
2018-03-18T17:05:09.281Z,1.00
2018-03-18T17:07:36.740Z,1.00
2018-03-18T17:13:34.736Z,1.00
2018-03-18T17:16:02.189Z,1.00
2018-03-18T17:18:30.806Z,0.90
2018-03-18T17:21:01.591Z,0.90
2018-03-18T17:23:30.842Z,0.90
2018-03-18T17:26:00.685Z,0.90
2018-03-18T17:28:31.794Z,0.80
2018-03-18T17:31:00.658Z,0.90
2018-03-18T17:33:32.928Z,0.90
2018-03-18T17:36:00.902Z,1.10
2018-03-18T17:38:30.882Z,1.10
2018-03-18T17:41:00.953Z,1.10
2018-03-18T17:43:30.773Z,1.00
2018-03-18T17:52:25.410Z,0.80
2018-03-18T17:55:05.298Z,0.80
2018-03-18T17:57:32.753Z,0.70
2018-03-18T18:00:00.378Z,0.60
2018-03-18T18:02:29.094Z,0.60
2018-03-18T18:04:59.000Z,0.60
2018-03-18T18:07:29.714Z,0.60
2018-03-18T18:09:59.287Z,0.70
2018-03-18T18:12:28.333Z,0.70
2018-03-18T18:15:00.003Z,0.80
2018-03-18T18:20:33.644Z,0.70
2018-03-18T18:23:01.600Z,0.70
2018-03-18T18:25:30.449Z,0.70
2018-03-18T18:28:02.336Z,0.70
2018-03-18T18:30:30.338Z,0.70
2018-03-18T18:33:37.624Z,0.70
2018-03-18T18:36:08.866Z,0.70
2018-03-18T18:42:11.090Z,0.80
2018-03-18T18:44:38.582Z,0.80
2018-03-18T18:47:06.853Z,0.90
2018-03-18T18:49:34.426Z,0.90
2018-03-18T18:52:08.552Z,1.00
2018-03-18T18:54:36.091Z,1.00
2018-03-18T18:57:03.878Z,0.90
2018-03-18T18:59:32.945Z,1.00
2018-03-18T19:02:04.060Z,0.90
2018-03-18T19:04:32.962Z,0.90
2018-03-18T19:07:24.846Z,0.80
2018-03-18T19:16:02.989Z,0.60
2018-03-18T19:18:32.260Z,0.60
2018-03-18T19:21:00.186Z,0.60
2018-03-18T19:24:06.951Z,0.60
2018-03-18T19:26:34.861Z,0.60
2018-03-18T19:29:02.455Z,0.80
2018-03-18T19:31:35.862Z,0.70
2018-03-18T19:34:04.090Z,0.60
2018-03-18T19:36:31.582Z,0.60
2018-03-18T19:39:02.859Z,0.80
2018-03-18T19:44:33.123Z,0.80
2018-03-18T19:47:01.262Z,0.80
2018-03-18T19:49:31.094Z,0.80
2018-03-18T19:52:07.953Z,0.90
2018-03-18T19:54:35.400Z,1.10
2018-03-18T19:57:03.369Z,1.00
2018-03-18T19:59:33.092Z,0.90
2018-03-18T20:02:03.132Z,0.90
2018-03-18T20:04:32.417Z,0.90
2018-03-18T20:07:02.205Z,0.80
2018-03-18T20:09:32.310Z,0.80
2018-03-18T20:12:01.134Z,0.80
2018-03-18T20:14:32.143Z,0.80
2018-03-18T20:17:01.133Z,0.90
2018-03-18T20:19:31.657Z,0.90
2018-03-18T20:22:02.626Z,0.90
2018-03-18T20:24:32.461Z,0.90
2018-03-18T20:27:02.349Z,0.80
2018-03-18T20:29:32.412Z,0.80
2018-03-18T20:32:03.245Z,0.80
2018-03-18T20:34:33.412Z,0.70
2018-03-18T20:37:02.358Z,0.90
2018-03-18T20:39:32.345Z,0.90
2018-03-18T20:42:34.325Z,0.80
2018-03-18T20:45:02.932Z,0.90
2018-03-18T20:47:32.380Z,0.90
2018-03-18T20:50:06.814Z,0.90
2018-03-18T20:52:34.725Z,0.90
2018-03-18T20:55:02.943Z,0.80
2018-03-18T20:58:05.674Z,0.80
2018-03-18T21:00:33.267Z,0.90
2018-03-18T21:03:02.671Z,0.90
2018-03-18T21:11:36.962Z,1.00
2018-03-18T21:14:04.415Z,1.00
2018-03-18T21:16:32.666Z,0.90
2018-03-18T21:19:00.135Z,0.90
2018-03-18T21:21:30.060Z,1.00
2018-03-18T21:23:59.741Z,1.00
2018-03-18T21:26:28.038Z,1.10
2018-03-18T21:28:59.509Z,1.20
2018-03-18T21:31:27.856Z,1.20
2018-03-18T21:34:00.719Z,0.90
2018-03-18T21:36:33.077Z,0.80
2018-03-18T21:39:00.688Z,0.70
2018-03-18T21:41:31.923Z,0.60
2018-03-18T21:44:02.874Z,0.70
2018-03-18T21:46:33.734Z,0.70
2018-03-18T21:49:01.209Z,0.90
2018-03-18T21:51:31.722Z,1.00
2018-03-18T21:54:03.386Z,1.00
2018-03-18T21:56:31.902Z,1.00
2018-03-18T21:59:03.077Z,1.00
2018-03-18T22:01:32.786Z,0.90
2018-03-18T22:04:02.947Z,0.80
2018-03-18T22:06:33.197Z,0.70
2018-03-18T22:09:01.972Z,0.60
2018-03-18T22:12:02.004Z,0.70
2018-03-18T22:14:32.945Z,0.60
2018-03-18T22:17:07.968Z,0.60
2018-03-18T22:19:35.469Z,0.60
2018-03-18T22:25:32.611Z,0.70
2018-03-18T22:31:06.909Z,0.70
2018-03-18T22:33:34.406Z,0.70
2018-03-18T22:42:03.505Z,0.80
2018-03-18T22:44:37.998Z,0.80
2018-03-18T22:47:05.466Z,0.70
2018-03-18T22:49:32.950Z,0.80
2018-03-18T22:52:03.681Z,0.70
2018-03-18T22:54:32.317Z,0.80
2018-03-18T22:57:29.143Z,0.70
2018-03-18T22:59:59.819Z,0.60
2018-03-18T23:02:31.242Z,0.70
2018-03-18T23:15:01.617Z,0.70
2018-03-18T23:17:32.778Z,0.70
2018-03-18T23:20:02.158Z,0.90
2018-03-18T23:22:30.141Z,0.90
2018-03-18T23:25:00.945Z,0.90
2018-03-18T23:27:33.642Z,0.80
2018-03-18T23:30:03.792Z,0.80
2018-03-18T23:32:33.237Z,0.80
2018-03-18T23:35:02.788Z,0.80
2018-03-18T23:37:33.605Z,0.80
2018-03-18T23:40:08.041Z,0.80
2018-03-18T23:42:36.281Z,0.90
2018-03-18T23:45:03.689Z,0.90
2018-03-18T23:47:32.354Z,0.90
2018-03-18T23:50:03.253Z,0.90
2018-03-18T23:52:37.313Z,0.90
2018-03-18T23:55:04.837Z,0.90
2018-03-18T23:57:33.377Z,0.90
